• Join FlightAware (Why Join?)
  • Login
  • US Flag 
12:20AM EDT


 

Airport Tracker/Info


-or-


 

Live Flight TrackerFlight Track Log ✈ EJA372P ✈ 17-Sep-2013 ✈ KCLE - KLZU

Flight Track Log - Related Links

Times and Time Zones

All times are in EDT time to prevent confusion due to time zone crossing. See the EJA372P flight status page for this flight to view local times or setup timezone preferences in your user account.

Time Position Orientation Groundspeed Altitude Reporting Facility
EDT Latitude Longitude Course Direction KTS MPH feet Rate Location/Type
03:08AM 41.4131 -81.8397 94° East 177 204 1,900  Level Cleveland Center
03:09AM 41.4100 -81.7836 94° East 214 246 5,100 3,600 Climbing Cleveland Center
03:10AM 41.3872 -81.7525 134° Southeast 252 290 6,900 3,360 Climbing Cleveland Center
03:11AM 41.3161 -81.7808 197° South 276 318 10,500 3,300 Climbing Cleveland Center
03:12AM 41.2256 -81.8308 203° Southwest 326 375 13,600 2,880 Climbing Cleveland Center
03:13AM 41.1331 -81.8703 198° South 368 423 16,400 2,520 Climbing Cleveland Center
03:14AM 41.0428 -81.9378 209° Southwest 374 430 18,800 2,640 Climbing Cleveland Center
03:15AM 40.9314 -82.0183 209° Southwest 381 438 21,700 2,460 Climbing Cleveland Center
03:16AM 40.8328 -82.0906 209° Southwest 400 460 23,800 1,980 Climbing Cleveland Center
03:17AM 40.7439 -82.1561 209° Southwest 416 479 25,700 1,920 Climbing Cleveland Center
03:18AM 40.6406 -82.2319 209° Southwest 424 488 27,700 1,980 Climbing Cleveland Center
03:19AM 40.5358 -82.3069 209° Southwest 428 493 29,700 1,980 Climbing Cleveland Center
03:20AM 40.4311 -82.3808 208° Southwest 427 491 31,700 1,140 Climbing Cleveland Center
03:21AM 40.3267 -82.4592 210° Southwest 431 496 32,000 120 Climbing Cleveland Center
03:22AM 40.2186 -82.5372 209° Southwest 441 507 32,000  Level Cleveland Center
03:23AM 40.1042 -82.5872 198° South 437 503 32,000  Level Cleveland Center
03:24AM 39.9803 -82.5983 184° South 442 509 32,000  Level Cleveland Center
03:25AM 39.8542 -82.6064 183° South 449 517 32,000  Level Cleveland Center
03:26AM 39.7236 -82.6161 183° South 465 535 32,000  Level Cleveland Center
03:27AM 39.5886 -82.6250 183° South 480 552 32,000  Level Cleveland Center
03:28AM 39.4519 -82.6336 183° South 492 566 32,000  Level Cleveland Center
03:29AM 39.3164 -82.6431 183° South 488 562 32,000  Level Cleveland Center
03:30AM 39.1806 -82.6508 183° South 489 563 32,000  Level Cleveland Center
03:31AM 38.9844 -82.6650 183° South 488 562 32,000  Level Indianapolis Center
03:32AM 38.8492 -82.6747 183° South 487 560 32,000  Level Indianapolis Center
03:33AM 38.7139 -82.6842 183° South 488 562 32,000  Level Indianapolis Center
03:34AM 38.5689 -82.6928 183° South 491 565 32,000  Level Indianapolis Center
03:35AM 38.4336 -82.7022 183° South 488 562 32,000  Level Indianapolis Center
03:36AM 38.2969 -82.7106 183° South 490 564 32,000  Level Indianapolis Center
03:37AM 38.1597 -82.7192 183° South 492 566 32,000  Level Indianapolis Center
03:38AM 38.0247 -82.7300 184° South 485 558 32,000  Level Indianapolis Center
03:39AM 37.8856 -82.7386 183° South 495 570 32,000  Level Indianapolis Center
03:40AM 37.7458 -82.7489 183° South 501 577 32,000  Level Indianapolis Center
03:41AM 37.6086 -82.7725 188° South 498 573 32,000  Level Indianapolis Center
03:42AM 37.4692 -82.7936 187° South 502 578 32,000  Level Indianapolis Center
03:43AM 37.3311 -82.8158 187° South 500 575 32,000  Level Indianapolis Center
03:44AM 37.1933 -82.8372 187° South 498 573 32,000  Level Indianapolis Center
03:45AM 37.0556 -82.8586 187° South 497 572 32,000  Level Indianapolis Center
03:46AM 36.9194 -82.8789 187° South 500 575 32,000  Level Indianapolis Center
03:47AM 36.7739 -82.9247 194° South 486 559 32,000  Level Indianapolis Center
03:48AM 36.6453 -82.9742 197° South 482 555 32,000  Level Indianapolis Center
03:49AM 36.5164 -83.0231 197° South 482 555 32,000  Level Indianapolis Center
03:50AM 36.3872 -83.0719 197° South 484 557 32,000  Level Indianapolis Center
03:52AM 36.2479 -83.1264 197° South  Level FlightAware Approximate
03:54AM 35.8725 -83.2678 195° South 479 551 32,000  Level Indianapolis Center
03:55AM 35.7828 -83.3017 197° South 481 554 32,000  Level Atlanta Center
03:56AM 35.6558 -83.3486 197° South 481 554 32,000  Level Atlanta Center
03:57AM 35.5331 -83.3983 198° South 476 548 32,000 -660 Level Atlanta Center
03:58AM 35.4100 -83.4425 196° South 476 548 30,700 -1,680 Descending Atlanta Center
03:59AM 35.4866 -83.4132 196° South  Level FlightAware Approximate
03:59AM 35.2872 -83.4892 197° South 476 548 28,700  Level Atlanta Center
04:00AM 35.3772 -83.4520 195° South  Level FlightAware Approximate
04:00AM 35.1686 -83.5383 199° South 466 536 26,700  Level Atlanta Center
04:01AM 35.0539 -83.5794 196° South 450 518 24,700 -2,040 Descending Atlanta Center
04:02AM 34.9392 -83.6181 195° South 439 505 22,700 -2,040 Descending Atlanta Center
04:03AM 34.8289 -83.6542 195° South 423 487 20,700 -2,040 Descending Atlanta Center
04:04AM 34.7206 -83.6975 198° South 418 481 18,700 -1,920 Descending Atlanta Center
04:05AM 34.6142 -83.7333 195° South 407 468 16,900 -1,980 Descending Atlanta Center
04:06AM 34.5097 -83.7717 197° South 398 458 14,800 -2,100 Descending Atlanta Center
04:07AM 34.4139 -83.8047 196° South 377 434 12,800 -2,340 Descending Atlanta Center
04:08AM 34.3181 -83.8400 197° South 348 400 10,200 -2,460 Descending Atlanta Center
04:09AM 34.2344 -83.8553 189° South 322 371 7,900 -2,220 Descending Atlanta Center
04:10AM 34.1594 -83.8581 182° South 292 336 5,800 -1,980 Descending Atlanta Center
04:11AM 34.0906 -83.8606 182° South 266 306 4,000 -900 Descending Atlanta Center
04:12AM 34.0258 -83.8633 182° South 240 276 4,000 480 Level Atlanta Center
04:13AM 33.9569 -83.8711 185° South 240 276 5,000 480 Climbing Atlanta Center
04:14AM 33.8903 -83.8761 184° South 240 276 5,000  Level Atlanta Center
04:15AM 33.8358 -83.8811 184° South 240 276 5,000  Level Atlanta Center
04:18AM 33.9667 -83.9500 333° Northwest  Level FlightAware Approximate
04:25AM 33.9781 -83.9624 333° Northwest  Level Estimated
04:26AM 33.9781 -83.9624 333° Northwest  Level Estimated
04:27AM 33.9781 -83.9624 333° Northwest  Level Estimated
04:28AM 33.9781 -83.9624 333° Northwest  Level Estimated
04:29AM 33.9781 -83.9624 333° Northwest  Level Estimated
04:30AM 33.9781 -83.9624 333° Northwest  Level Estimated
04:31AM 33.9781 -83.9624 333° Northwest  Level Estimated
04:32AM 33.9781 -83.9624 333° Northwest  Level Estimated
04:33AM 33.9781 -83.9624 333° Northwest  Level Estimated